Time;durP1;ratioP1;P1;durP2;ratioP2;P2;SDS_P1;SDS_P2;PMS_P1;PMS_P2;Temp;Humidity;BMP_temperature;BMP_pressure;BME280_temperature;BME280_humidity;BME280_pressure;Samples;Min_cycle;Max_cycle;Signal;HPM_P1;HPM_P2
2020/12/12 00:01:49;;;;;;;13.65;7.58;;;;;;;3.71;54.44;100828.14;1760378;81;21075;-78
2020/12/12 00:04:17;;;;;;;13.22;8.10;;;;;;;3.76;54.40;100823.84;1760406;81;21055;-77
2020/12/12 00:06:45;;;;;;;12.33;7.40;;;;;;;3.80;54.26;100822.20;1759316;80;21138;-77
2020/12/12 00:09:15;;;;;;;11.28;7.17;;;;;;;3.83;54.12;100822.48;1759815;81;21817;-78
2020/12/12 00:11:42;;;;;;;15.25;7.22;;;;;;;3.87;53.94;100822.66;1736961;81;21134;-77
2020/12/12 00:14:10;;;;;;;11.03;6.50;;;;;;;3.91;53.77;100828.11;1760279;80;21142;-76
2020/12/12 00:16:40;;;;;;;35.83;7.87;;;;;;;4.18;53.03;100827.11;1760378;80;21070;-77
2020/12/12 00:19:09;;;;;;;11.65;7.40;;;;;;;4.14;53.11;100811.08;1760430;81;21555;-77
2020/12/12 00:21:37;;;;;;;12.23;6.87;;;;;;;4.19;52.80;100810.27;1760238;81;22118;-77
2020/12/12 00:24:05;;;;;;;15.90;8.05;;;;;;;4.30;52.42;100815.16;1760325;81;21131;-77
2020/12/12 00:26:33;;;;;;;12.28;7.10;;;;;;;4.33;52.38;100822.06;1760327;80;21570;-79
2020/12/12 00:29:00;;;;;;;10.78;6.30;;;;;;;3.98;53.09;100815.27;1760369;81;21169;-76
2020/12/12 00:31:28;;;;;;;13.55;7.42;;;;;;;3.96;53.09;100813.22;1760410;80;21055;-78
2020/12/12 00:33:56;;;;;;;12.82;8.25;;;;;;;3.92;53.12;100814.38;1760439;81;21383;-79
2020/12/12 00:36:23;;;;;;;12.75;7.08;;;;;;;3.91;53.14;100820.16;1760265;81;21135;-78
2020/12/12 00:38:51;;;;;;;13.45;8.23;;;;;;;4.01;52.89;100808.44;1760293;81;21174;-78
2020/12/12 00:41:21;;;;;;;12.20;7.40;;;;;;;3.95;53.01;100810.17;1760236;81;21063;-77
2020/12/12 00:43:49;;;;;;;12.80;7.67;;;;;;;3.93;53.08;100812.09;1760461;81;21558;-77
2020/12/12 00:46:17;;;;;;;12.00;7.50;;;;;;;3.91;52.96;100803.42;1760281;80;21223;-79
2020/12/12 00:48:44;;;;;;;13.28;7.97;;;;;;;3.92;52.88;100810.41;1760303;81;21558;-78
2020/12/12 00:51:12;;;;;;;10.20;6.25;;;;;;;4.24;52.14;100801.51;1760398;81;21115;-78
2020/12/12 00:53:40;;;;;;;12.37;7.53;;;;;;;4.12;52.13;100798.39;1760341;80;21499;-77
2020/12/12 00:56:08;;;;;;;12.98;7.75;;;;;;;3.99;52.37;100799.73;1760384;81;21604;-78
2020/12/12 00:58:36;;;;;;;10.85;6.60;;;;;;;3.96;52.41;100792.86;1760348;81;21648;-78
2020/12/12 01:01:04;;;;;;;11.22;7.40;;;;;;;3.95;52.34;100791.17;1760196;81;21577;-78
2020/12/12 01:03:32;;;;;;;10.48;6.58;;;;;;;3.94;52.32;100789.45;1760411;81;21502;-78
2020/12/12 01:06:00;;;;;;;17.25;8.35;;;;;;;3.95;52.18;100788.97;1760342;81;21063;-78
2020/12/12 01:08:28;;;;;;;10.40;7.05;;;;;;;3.95;52.13;100801.77;1760418;80;21567;-81
2020/12/12 01:10:55;;;;;;;13.03;7.97;;;;;;;4.03;51.72;100791.45;1760235;81;21363;-81
2020/12/12 01:13:23;;;;;;;11.48;7.10;;;;;;;3.88;51.95;100787.23;1760279;80;21143;-81
2020/12/12 01:15:51;;;;;;;8.45;5.67;;;;;;;3.85;51.84;100780.81;1760348;80;21573;-79
2020/12/12 01:18:19;;;;;;;12.33;7.20;;;;;;;3.81;51.60;100780.66;1760391;81;21535;-77
2020/12/12 01:20:47;;;;;;;12.05;7.80;;;;;;;3.76;51.64;100781.46;1760398;81;21232;-79
2020/12/12 01:23:15;;;;;;;11.78;7.12;;;;;;;3.73;51.61;100775.91;1760347;81;21862;-82
2020/12/12 01:25:43;;;;;;;13.78;8.10;;;;;;;3.70;51.72;100769.50;1760346;81;21570;-77
2020/12/12 01:28:12;;;;;;;12.53;7.37;;;;;;;3.67;51.76;100773.67;1760279;81;21174;-79
2020/12/12 01:30:40;;;;;;;10.98;6.22;;;;;;;3.65;51.70;100760.18;1760438;81;21047;-78
2020/12/12 01:33:07;;;;;;;12.07;7.35;;;;;;;3.97;51.03;100772.50;1760440;80;21164;-80
2020/12/12 01:35:35;;;;;;;8.28;5.42;;;;;;;4.03;50.78;100770.25;1760337;81;22359;-77
2020/12/12 01:38:04;;;;;;;11.68;6.37;;;;;;;3.86;51.17;100772.39;1760096;81;21115;-80
2020/12/12 01:40:31;;;;;;;8.80;5.45;;;;;;;3.68;51.33;100767.89;1760089;81;21162;-80
2020/12/12 01:42:59;;;;;;;13.03;7.03;;;;;;;3.63;51.45;100781.45;1760210;81;21071;-79
2020/12/12 01:45:27;;;;;;;13.13;6.83;;;;;;;3.63;51.43;100780.61;1759267;80;21479;-79
2020/12/12 01:47:55;;;;;;;14.55;8.08;;;;;;;3.62;51.39;100778.92;1760390;81;21951;-77
2020/12/12 01:50:23;;;;;;;14.50;7.08;;;;;;;3.59;51.22;100772.50;1760349;81;21228;-77
2020/12/12 01:52:51;;;;;;;14.47;7.37;;;;;;;3.53;51.33;100771.12;1745612;80;21728;-79
2020/12/12 01:55:21;;;;;;;18.62;9.15;;;;;;;3.51;51.34;100767.75;1752468;80;21529;-76
2020/12/12 01:57:53;;;;;;;12.15;7.25;;;;;;;3.51;51.39;100767.27;1787240;80;21157;-77
2020/12/12 02:00:22;;;;;;;11.60;6.62;;;;;;;3.52;51.44;100771.61;1755107;80;22239;-78
2020/12/12 02:02:55;;;;;;;15.13;7.20;;;;;;;3.52;51.28;100766.31;1788666;80;21090;-76
2020/12/12 02:05:40;;;;;;;14.28;7.00;;;;;;;3.53;51.27;100764.51;1788776;80;21564;-80
2020/12/12 02:08:16;;;;;;;14.50;6.60;;;;;;;3.49;51.20;100766.52;1788877;80;21130;-77
2020/12/12 02:10:48;;;;;;;9.18;5.92;;;;;;;3.48;51.18;100760.85;1788887;80;21544;-78
2020/12/12 02:13:18;;;;;;;10.98;7.45;;;;;;;3.49;51.22;100760.38;1788795;80;21810;-77
2020/12/12 02:15:46;;;;;;;9.35;6.35;;;;;;;3.53;51.10;100779.08;1787566;80;21221;-78
2020/12/12 02:18:19;;;;;;;11.65;7.15;;;;;;;3.48;51.15;100768.80;1788788;80;21101;-77
2020/12/12 02:21:00;;;;;;;8.98;6.12;;;;;;;3.45;51.13;100774.77;1788881;80;21050;-80
2020/12/12 02:23:28;;;;;;;10.23;6.67;;;;;;;3.71;50.56;100764.56;1789063;80;21080;-76
2020/12/12 02:25:56;;;;;;;11.65;6.80;;;;;;;3.43;51.01;100759.48;1754520;80;21377;-76
2020/12/12 02:28:30;;;;;;;9.55;5.37;;;;;;;3.39;51.13;100765.45;1788858;80;21500;-79
2020/12/12 02:30:55;;;;;;;11.57;6.50;;;;;;;3.35;51.23;100757.34;1788621;80;21121;-81
2020/12/12 02:33:23;;;;;;;11.65;6.25;;;;;;;3.34;51.27;100756.14;1788928;80;21150;-76
2020/12/12 02:35:51;;;;;;;8.93;6.62;;;;;;;3.35;51.22;100758.67;1789035;80;21181;-80
2020/12/12 02:38:19;;;;;;;11.97;6.78;;;;;;;3.39;51.18;100759.31;1788948;80;21202;-80
2020/12/12 02:40:47;;;;;;;13.72;6.50;;;;;;;3.44;51.01;100754.06;1788831;80;21085;-78
2020/12/12 02:43:15;;;;;;;12.55;5.40;;;;;;;3.49;50.79;100763.02;1788897;80;21149;-78
2020/12/12 02:45:46;;;;;;;12.50;6.95;;;;;;;3.75;50.14;100753.28;1788917;80;21117;-78
2020/12/12 02:48:14;;;;;;;10.85;6.92;;;;;;;3.83;49.78;100753.59;1788934;80;21121;-79
2020/12/12 02:50:43;;;;;;;12.82;6.50;;;;;;;3.81;49.66;100756.36;1788844;80;21803;-78
2020/12/12 02:53:11;;;;;;;12.93;6.72;;;;;;;3.75;49.55;100754.60;1788880;80;21624;-80
2020/12/12 02:55:39;;;;;;;9.33;6.30;;;;;;;3.74;49.59;100760.86;1788828;80;21035;-80
2020/12/12 02:58:07;;;;;;;10.10;5.92;;;;;;;3.81;49.52;100749.73;1788815;80;21114;-78
2020/12/12 03:00:34;;;;;;;10.98;6.55;;;;;;;3.60;49.93;100743.28;1788921;80;21145;-78
2020/12/12 03:03:03;;;;;;;19.12;6.87;;;;;;;3.37;50.48;100758.11;1788865;80;21867;-81
2020/12/12 03:05:30;;;;;;;13.18;7.35;;;;;;;3.38;50.46;100746.55;1788808;80;21507;-78
2020/12/12 03:07:58;;;;;;;11.70;6.12;;;;;;;3.46;50.36;100743.39;1788650;80;21720;-77
2020/12/12 03:10:26;;;;;;;11.57;6.92;;;;;;;3.50;50.18;100747.53;1788455;80;21473;-81
2020/12/12 03:12:53;;;;;;;12.18;6.22;;;;;;;3.53;50.02;100749.94;1788108;80;21118;-78
2020/12/12 03:15:21;;;;;;;12.60;6.80;;;;;;;3.87;49.29;100739.18;1787789;80;21360;-79
2020/12/12 03:17:49;;;;;;;9.75;5.47;;;;;;;3.94;48.95;100732.95;1787292;80;21184;-79
2020/12/12 03:20:17;;;;;;;17.42;6.22;;;;;;;3.93;48.93;100749.81;1787604;80;21177;-78
2020/12/12 03:22:46;;;;;;;14.10;6.92;;;;;;;3.96;48.86;100741.66;1787449;80;21204;-77
2020/12/12 03:25:14;;;;;;;8.80;5.75;;;;;;;3.96;48.63;100734.55;1787567;80;21525;-79
2020/12/12 03:27:42;;;;;;;8.28;5.60;;;;;;;3.62;49.18;100745.33;1787452;80;22077;-78
2020/12/12 03:30:11;;;;;;;11.88;6.67;;;;;;;3.35;49.92;100749.41;1787881;80;21417;-79
2020/12/12 03:32:38;;;;;;;13.13;6.60;;;;;;;3.30;50.20;100739.13;1788965;80;21497;-76
2020/12/12 03:35:06;;;;;;;11.63;7.78;;;;;;;3.26;50.43;100734.15;1788996;80;21659;-79
2020/12/12 03:37:35;;;;;;;9.55;5.90;;;;;;;3.24;50.54;100739.55;1788957;80;21110;-78
2020/12/12 03:40:03;;;;;;;11.33;6.92;;;;;;;3.25;50.60;100739.08;1788876;80;21390;-78
2020/12/12 03:42:31;;;;;;;9.83;5.55;;;;;;;3.28;50.57;100735.75;1788775;80;21177;-78
2020/12/12 03:44:59;;;;;;;9.63;6.47;;;;;;;3.29;50.53;100732.63;1788897;80;21050;-80
2020/12/12 03:47:26;;;;;;;9.00;6.22;;;;;;;3.31;50.57;100724.09;1788874;80;21078;-80
2020/12/12 03:49:54;;;;;;;10.05;6.25;;;;;;;3.34;50.58;100733.62;1788889;80;21118;-77
2020/12/12 03:52:23;;;;;;;10.32;6.45;;;;;;;3.37;50.50;100730.30;1788809;80;21660;-79
2020/12/12 03:54:51;;;;;;;12.03;7.08;;;;;;;3.40;50.50;100727.42;1788745;80;21675;-78
2020/12/12 03:57:19;;;;;;;12.58;6.70;;;;;;;3.74;49.88;100724.62;1788906;80;21063;-81
2020/12/12 03:59:46;;;;;;;11.60;6.37;;;;;;;3.60;50.01;100720.77;1788924;80;21061;-80
2020/12/12 04:02:14;;;;;;;10.43;6.87;;;;;;;3.60;49.96;100718.12;1788855;80;21121;-78
2020/12/12 04:04:42;;;;;;;12.07;6.10;;;;;;;3.63;49.77;100709.94;1788873;80;21534;-78
2020/12/12 04:07:10;;;;;;;9.63;6.40;;;;;;;3.75;49.61;100705.59;1788817;80;21113;-79
2020/12/12 04:09:39;;;;;;;12.78;5.83;;;;;;;3.47;50.17;100718.12;1788876;80;21065;-79
2020/12/12 04:12:06;;;;;;;10.20;6.72;;;;;;;3.73;49.66;100707.52;1788873;80;21639;-77
2020/12/12 04:14:34;;;;;;;11.15;4.92;;;;;;;3.77;49.52;100707.64;1788803;80;21125;-79
2020/12/12 04:17:02;;;;;;;12.37;6.28;;;;;;;3.75;49.49;100706.91;1788707;80;21206;-78
2020/12/12 04:19:30;;;;;;;13.85;7.15;;;;;;;3.77;49.35;100707.64;1788890;80;21090;-79
2020/12/12 04:21:59;;;;;;;12.50;6.62;;;;;;;3.79;49.27;100696.47;1788626;80;21085;-79
2020/12/12 04:24:26;;;;;;;17.02;8.28;;;;;;;3.79;49.27;100703.09;1788824;80;21074;-79
2020/12/12 04:26:54;;;;;;;13.03;7.97;;;;;;;3.77;49.12;100707.64;1787960;80;21640;-78
2020/12/12 04:29:22;;;;;;;14.60;6.30;;;;;;;3.75;49.13;100702.94;1787251;80;21764;-79
2020/12/12 04:31:51;;;;;;;11.15;6.78;;;;;;;3.73;49.25;100707.03;1787546;80;21125;-79
2020/12/12 04:34:19;;;;;;;11.05;6.22;;;;;;;3.73;49.27;100707.03;1787458;80;21185;-80
2020/12/12 04:36:47;;;;;;;13.90;7.92;;;;;;;3.75;49.16;100709.56;1787904;80;21172;-79
2020/12/12 04:39:15;;;;;;;14.85;7.53;;;;;;;3.77;49.14;100707.64;1787419;80;21447;-80
2020/12/12 04:41:43;;;;;;;12.75;7.37;;;;;;;3.78;49.21;100709.36;1787779;80;21193;-79
2020/12/12 04:44:11;;;;;;;9.00;6.03;;;;;;;3.76;49.23;100708.59;1788564;80;21781;-78
2020/12/12 04:46:39;;;;;;;11.20;6.67;;;;;;;3.76;49.27;100704.63;1781565;80;21370;-79
2020/12/12 04:49:07;;;;;;;11.33;6.62;;;;;;;3.77;49.26;100702.34;1783410;80;21117;-81
2020/12/12 04:51:35;;;;;;;12.98;7.90;;;;;;;3.77;49.19;100698.37;1787756;80;21628;-80
2020/12/12 04:54:04;;;;;;;12.03;7.50;;;;;;;3.80;49.13;100704.78;1753040;80;22256;-78
2020/12/12 04:56:36;;;;;;;10.85;8.03;;;;;;;3.80;49.06;100700.33;1787431;80;21208;-79
2020/12/12 04:59:04;;;;;;;16.82;8.78;;;;;;;3.45;49.79;100698.86;1787531;80;21140;-76
2020/12/12 05:01:33;;;;;;;12.40;7.15;;;;;;;3.41;49.73;100709.28;1787458;80;21694;-75
2020/12/12 05:04:02;;;;;;;14.73;8.25;;;;;;;3.33;49.81;100707.64;1787173;80;21184;-77
2020/12/12 05:06:32;;;;;;;15.38;8.03;;;;;;;3.62;49.05;100692.36;1787254;80;21271;-77
2020/12/12 05:08:59;;;;;;;15.85;8.70;;;;;;;3.61;48.93;100694.64;1751338;80;21046;-79
2020/12/12 05:11:27;;;;;;;20.82;8.83;;;;;;;3.23;49.52;100702.61;1787222;80;21146;-78
2020/12/12 05:13:55;;;;;;;16.55;8.30;;;;;;;3.16;49.75;100708.78;1787324;80;21632;-79
2020/12/12 05:16:22;;;;;;;12.18;7.33;;;;;;;3.14;49.89;100705.89;1787662;80;21161;-78
2020/12/12 05:18:50;;;;;;;13.08;7.58;;;;;;;3.12;49.94;100698.51;1787317;80;21217;-79
2020/12/12 05:21:18;;;;;;;14.07;7.58;;;;;;;3.10;50.03;100707.89;1787870;80;21141;-78
2020/12/12 05:23:48;;;;;;;11.90;6.35;;;;;;;3.08;50.23;100700.98;1723290;80;21086;-79
2020/12/12 05:26:18;;;;;;;13.55;7.75;;;;;;;3.37;49.34;100699.86;1734532;81;21177;-79
2020/12/12 05:28:47;;;;;;;14.63;7.67;;;;;;;3.37;49.35;100696.36;1755248;81;21169;-79
2020/12/12 05:31:16;;;;;;;13.65;6.50;;;;;;;3.40;49.41;100703.59;1755924;81;21390;-78
2020/12/12 05:33:44;;;;;;;12.15;6.22;;;;;;;3.42;49.24;100697.73;1722258;81;21228;-78
2020/12/12 05:36:12;;;;;;;13.15;7.40;;;;;;;3.41;49.26;100696.05;1755549;81;21201;-79
2020/12/12 05:38:40;;;;;;;13.30;7.97;;;;;;;3.42;49.15;100695.56;1763631;80;21467;-79
2020/12/12 05:41:08;;;;;;;14.18;7.50;;;;;;;3.39;49.28;100701.06;1774497;80;21166;-78
2020/12/12 05:43:36;;;;;;;11.93;7.03;;;;;;;3.20;49.55;100702.33;1775003;80;21279;-78
2020/12/12 05:46:04;;;;;;;13.55;7.75;;;;;;;3.23;49.46;100697.31;1696042;80;22221;-80
2020/12/12 05:48:32;;;;;;;12.55;7.12;;;;;;;3.21;49.49;100693.43;1774576;80;21592;-78
2020/12/12 05:51:00;;;;;;;15.93;7.78;;;;;;;3.22;49.63;100688.50;1718690;80;21193;-77
2020/12/12 05:53:28;;;;;;;11.20;5.90;;;;;;;2.94;50.44;100684.25;1776138;79;21082;-78
2020/12/12 05:55:56;;;;;;;12.18;6.80;;;;;;;3.24;50.04;100685.29;1743648;80;21329;-78
2020/12/12 05:58:23;;;;;;;14.68;7.45;;;;;;;3.35;49.63;100694.28;1763164;80;21491;-78
2020/12/12 06:00:53;;;;;;;15.25;7.15;;;;;;;3.32;49.56;100682.13;1754446;81;21194;-79
2020/12/12 06:03:32;;;;;;;10.32;5.83;;;;;;;3.26;49.59;100683.84;1754428;81;21181;-76
2020/12/12 06:06:06;;;;;;;13.05;6.15;;;;;;;3.20;49.69;100672.38;1745389;82;21154;-78
2020/12/12 06:08:38;;;;;;;12.37;6.65;;;;;;;3.12;49.82;100681.30;1745280;82;21216;-77
2020/12/12 06:11:08;;;;;;;13.08;6.12;;;;;;;3.12;49.91;100678.66;1745339;82;21182;-81
2020/12/12 06:13:37;;;;;;;11.33;6.45;;;;;;;3.14;50.06;100682.91;1758944;80;21194;-78
2020/12/12 06:16:07;;;;;;;15.43;7.65;;;;;;;3.18;50.12;100686.17;1777200;80;21185;-78
2020/12/12 06:18:48;;;;;;;14.80;8.50;;;;;;;3.23;50.27;100689.38;1776427;80;21500;-78
2020/12/12 06:21:16;;;;;;;12.88;7.60;;;;;;;3.30;50.26;100690.63;1765248;80;22268;-79
2020/12/12 06:23:44;;;;;;;12.43;7.15;;;;;;;3.35;50.16;100687.66;1744524;82;21224;-79
2020/12/12 06:26:11;;;;;;;14.60;7.83;;;;;;;3.39;50.12;100699.26;1744886;82;21205;-78
2020/12/12 06:28:42;;;;;;;15.28;7.60;;;;;;;3.41;49.97;100691.23;1730813;82;21166;-79
2020/12/12 06:31:13;;;;;;;15.93;7.25;;;;;;;3.42;49.89;100686.30;1765344;80;21153;-79
2020/12/12 06:33:53;;;;;;;10.58;6.08;;;;;;;3.45;49.83;100689.59;1775759;80;21213;-79
2020/12/12 06:36:31;;;;;;;11.70;7.00;;;;;;;3.47;49.67;100690.31;1775665;80;21203;-79
2020/12/12 06:39:24;;;;;;;12.93;6.17;;;;;;;3.51;49.64;100688.30;1767369;81;21526;-77
2020/12/12 06:41:57;;;;;;;14.95;8.68;;;;;;;3.54;49.52;100688.94;1776512;79;21213;-78
2020/12/12 06:44:38;;;;;;;13.80;7.67;;;;;;;3.53;49.42;100690.35;1782828;79;22025;-79
2020/12/12 06:47:06;;;;;;;11.90;7.50;;;;;;;3.52;49.55;100687.34;1762233;80;21379;-82
2020/12/12 06:49:35;;;;;;;10.55;6.17;;;;;;;3.54;49.67;100678.35;1767883;81;21209;-80
2020/12/12 06:52:03;;;;;;;14.87;7.83;;;;;;;3.56;49.52;100690.99;1745030;79;21183;-80
2020/12/12 06:54:31;;;;;;;15.70;7.55;;;;;;;3.56;49.36;100683.53;1735879;81;21210;-77
2020/12/12 06:56:58;;;;;;;13.75;7.37;;;;;;;3.54;49.38;100683.64;1779229;80;21185;-78
2020/12/12 06:59:35;;;;;;;16.30;7.45;;;;;;;3.54;49.46;100686.74;1780790;80;22124;-78
2020/12/12 07:02:04;;;;;;;18.50;8.38;;;;;;;3.51;49.25;100693.12;1780440;80;21522;-80
2020/12/12 07:04:34;;;;;;;16.45;7.83;;;;;;;3.46;49.32;100691.27;1780707;80;21196;-79
2020/12/12 07:07:09;;;;;;;11.83;6.80;;;;;;;3.45;49.29;100682.97;1781956;80;21113;-78
2020/12/12 07:09:41;;;;;;;13.03;7.05;;;;;;;3.46;49.36;100679.84;1781945;80;21162;-78
2020/12/12 07:12:10;;;;;;;15.23;6.45;;;;;;;3.45;49.39;100686.94;1782038;80;22168;-78
2020/12/12 07:14:39;;;;;;;14.70;7.08;;;;;;;3.44;49.44;100695.81;1782596;80;21121;-78
2020/12/12 07:17:08;;;;;;;13.83;7.10;;;;;;;3.42;49.55;100685.81;1771754;80;21162;-78
2020/12/12 07:19:38;;;;;;;12.40;7.05;;;;;;;3.44;49.61;100694.48;1766657;80;21058;-81
2020/12/12 07:22:09;;;;;;;11.97;7.15;;;;;;;3.43;49.51;100698.09;1777348;79;21213;-80
2020/12/12 07:24:38;;;;;;;12.15;7.37;;;;;;;3.45;49.47;100702.83;1769380;81;21857;-77
2020/12/12 07:27:10;;;;;;;17.42;7.97;;;;;;;3.47;49.55;100700.91;1737264;82;21114;-77
2020/12/12 07:29:40;;;;;;;13.90;7.10;;;;;;;3.51;49.50;100694.92;1767242;81;21217;-77
2020/12/12 07:32:08;;;;;;;17.25;8.80;;;;;;;3.48;49.46;100692.48;1798628;79;21247;-78
2020/12/12 07:34:36;;;;;;;13.62;7.92;;;;;;;3.52;49.55;100695.28;1755805;79;21222;-79
2020/12/12 07:37:06;;;;;;;15.25;6.50;;;;;;;3.51;49.48;100697.09;1770694;80;22004;-80
2020/12/12 07:39:39;;;;;;;18.77;8.08;;;;;;;3.51;49.56;100697.09;1762513;79;21214;-78
2020/12/12 07:42:09;;;;;;;16.07;6.75;;;;;;;3.53;49.67;100696.97;1778739;80;21205;-79
2020/12/12 07:44:39;;;;;;;13.62;8.25;;;;;;;3.49;50.06;100695.01;1800027;79;21102;-81
2020/12/12 07:47:09;;;;;;;15.20;7.37;;;;;;;3.49;49.76;100702.95;1800165;79;21573;-78
2020/12/12 07:49:37;;;;;;;13.68;7.55;;;;;;;3.44;49.57;100691.84;1798844;79;21264;-79
2020/12/12 07:52:10;;;;;;;12.58;5.85;;;;;;;3.45;49.66;100695.33;1771071;79;21224;-78
2020/12/12 07:54:45;;;;;;;15.38;8.53;;;;;;;3.46;49.52;100693.92;1755390;79;21237;-78
2020/12/12 07:57:13;;;;;;;14.87;7.83;;;;;;;3.40;49.61;100685.06;1793880;79;21233;-78
2020/12/12 07:59:44;;;;;;;14.87;7.25;;;;;;;3.36;49.71;100673.47;1771616;79;21093;-81
2020/12/12 08:02:13;;;;;;;15.83;7.97;;;;;;;3.34;49.71;100678.88;1756811;81;21203;-79
2020/12/12 08:04:41;;;;;;;16.00;7.65;;;;;;;3.32;49.72;100680.80;1785876;79;21651;-79
2020/12/12 08:07:20;;;;;;;16.75;7.97;;;;;;;2.92;50.62;100682.67;1789768;78;21158;-80
2020/12/12 08:09:51;;;;;;;19.23;7.65;;;;;;;2.88;50.87;100674.09;1746829;79;21106;-78
2020/12/12 08:12:29;;;;;;;13.93;6.85;;;;;;;3.09;50.64;100672.24;1781670;79;21503;-78
2020/12/12 08:15:17;;;;;;;15.75;7.15;;;;;;;3.32;50.12;100667.56;1766906;80;21371;-78
2020/12/12 08:17:45;;;;;;;15.53;7.53;;;;;;;3.29;49.92;100672.58;1763922;80;21540;-79
2020/12/12 08:20:17;;;;;;;19.32;9.03;;;;;;;3.27;49.94;100681.12;1772935;80;21189;-79
2020/12/12 08:22:45;;;;;;;16.90;7.50;;;;;;;3.21;49.94;100676.70;1752595;80;21446;-80
2020/12/12 08:25:13;;;;;;;15.85;7.72;;;;;;;3.13;50.17;100677.70;1778619;80;21196;-80
2020/12/12 08:27:41;;;;;;;13.68;6.55;;;;;;;3.11;50.31;100671.68;1779471;80;22541;-81
2020/12/12 08:30:10;;;;;;;14.25;8.25;;;;;;;3.11;50.49;100671.68;1767327;80;21192;-79
2020/12/12 08:32:51;;;;;;;12.65;7.22;;;;;;;3.13;50.43;100670.60;1779559;80;21174;-80
2020/12/12 08:35:26;;;;;;;18.17;7.92;;;;;;;3.18;50.41;100667.64;1729504;81;21049;-78
2020/12/12 08:38:00;;;;;;;19.32;8.23;;;;;;;3.18;50.69;100671.61;1766911;80;21129;-78
2020/12/12 08:40:46;;;;;;;17.25;7.62;;;;;;;3.08;50.54;100667.43;1775275;80;21388;-78
2020/12/12 08:43:14;;;;;;;13.48;7.45;;;;;;;3.01;50.77;100667.02;1751827;80;21486;-79
2020/12/12 08:45:56;;;;;;;15.40;7.67;;;;;;;3.07;50.86;100666.22;1769461;80;21114;-78
2020/12/12 08:48:35;;;;;;;17.40;7.85;;;;;;;3.11;50.75;100667.71;1767042;80;21111;-77
2020/12/12 08:51:09;;;;;;;13.78;6.92;;;;;;;3.09;50.63;100662.98;1763357;80;21117;-77
2020/12/12 08:53:43;;;;;;;15.53;7.78;;;;;;;3.10;50.66;100660.73;1750118;82;21381;-79
2020/12/12 08:56:26;;;;;;;17.40;7.62;;;;;;;3.16;50.74;100668.23;1776671;80;21457;-79
2020/12/12 08:58:57;;;;;;;15.03;7.33;;;;;;;3.15;50.59;100673.16;1777044;80;21594;-79
2020/12/12 09:01:42;;;;;;;16.00;8.75;;;;;;;3.07;50.63;100663.58;1770877;80;21129;-80
2020/12/12 09:04:15;;;;;;;15.00;7.72;;;;;;;2.62;51.70;100659.12;1764621;80;21630;-79
2020/12/12 09:06:54;;;;;;;13.30;7.42;;;;;;;2.59;51.89;100657.55;1774012;80;21437;-78
2020/12/12 09:09:27;;;;;;;15.83;7.47;;;;;;;2.63;51.99;100651.07;1776226;80;21608;-78
2020/12/12 09:12:08;;;;;;;18.75;8.05;;;;;;;2.72;51.97;100646.97;1768178;80;21153;-79
2020/12/12 09:14:41;;;;;;;16.42;8.88;;;;;;;2.75;51.90;100644.13;1780520;80;21577;-77
2020/12/12 09:17:10;;;;;;;17.48;8.63;;;;;;;2.78;51.81;100642.60;1776290;80;21087;-79
2020/12/12 09:19:39;;;;;;;19.57;7.90;;;;;;;2.76;51.82;100645.81;1766227;80;21364;-78
2020/12/12 09:22:10;;;;;;;16.35;7.00;;;;;;;2.68;51.75;100635.77;1749922;82;21610;-80
2020/12/12 09:24:38;;;;;;;17.12;8.55;;;;;;;2.92;51.38;100641.19;1754405;80;21126;-80
2020/12/12 09:27:09;;;;;;;16.50;8.38;;;;;;;3.01;51.18;100648.97;1759509;80;21082;-79
2020/12/12 09:29:38;;;;;;;17.07;9.45;;;;;;;3.06;51.13;100646.86;1769889;80;21228;-79
2020/12/12 09:32:07;;;;;;;21.57;10.30;;;;;;;3.07;51.27;100635.31;1835594;77;21797;-81
2020/12/12 09:34:37;;;;;;;16.00;8.15;;;;;;;2.94;51.61;100633.98;1821831;77;21743;-78
2020/12/12 09:37:05;;;;;;;21.52;9.85;;;;;;;2.82;51.94;100648.06;1828821;77;21189;-80
2020/12/12 09:39:34;;;;;;;13.93;7.15;;;;;;;2.72;52.17;100628.45;1830610;77;42245;-78
2020/12/12 09:42:02;;;;;;;21.05;9.28;;;;;;;2.72;52.27;100639.88;1838782;77;21158;-79
2020/12/12 09:44:31;;;;;;;14.87;6.67;;;;;;;3.07;51.52;100625.20;1821800;77;21199;-78
2020/12/12 09:46:59;;;;;;;18.37;9.60;;;;;;;3.16;51.20;100628.53;1837274;77;21443;-79
2020/12/12 09:49:27;;;;;;;17.15;8.48;;;;;;;2.80;51.80;100620.84;1834514;77;21554;-79
2020/12/12 09:52:06;;;;;;;24.85;10.03;;;;;;;2.71;52.13;100615.70;1840111;77;21223;-80
2020/12/12 09:54:36;;;;;;;26.70;12.78;;;;;;;3.09;51.34;100616.22;1837433;77;21168;-79
2020/12/12 09:57:04;;;;;;;21.90;11.50;;;;;;;3.14;51.34;100613.25;1799408;77;22473;-80
2020/12/12 09:59:32;;;;;;;17.80;8.68;;;;;;;3.18;51.30;100606.77;1836226;77;21201;-80
2020/12/12 10:02:00;;;;;;;21.75;9.88;;;;;;;2.81;52.09;100602.70;1832247;77;21487;-78
2020/12/12 10:04:31;;;;;;;19.30;9.33;;;;;;;2.80;52.08;100595.23;1833997;76;21183;-78
2020/12/12 10:06:59;;;;;;;15.95;8.83;;;;;;;3.13;51.43;100591.69;1831354;76;21703;-78
2020/12/12 10:09:27;;;;;;;18.85;9.90;;;;;;;2.85;52.07;100582.17;1744228;80;21278;-79
2020/12/12 10:11:55;;;;;;;20.35;9.25;;;;;;;2.90;52.16;100568.99;1783006;79;21239;-81
2020/12/12 10:14:22;;;;;;;16.50;8.13;;;;;;;3.02;51.95;100574.77;1787517;79;21162;-81
2020/12/12 10:16:50;;;;;;;21.02;9.05;;;;;;;3.24;51.61;100574.59;1785220;79;21189;-78
2020/12/12 10:19:21;;;;;;;21.60;9.05;;;;;;;3.46;50.92;100577.41;1771285;79;21310;-80
2020/12/12 10:21:48;;;;;;;19.17;8.93;;;;;;;3.53;50.69;100582.61;1773914;79;21195;-80
2020/12/12 10:24:16;;;;;;;17.30;8.70;;;;;;;3.56;50.41;100578.43;1768508;80;21178;-80
2020/12/12 10:26:46;;;;;;;15.20;7.95;;;;;;;3.60;50.38;100579.55;1777000;79;21210;-80
2020/12/12 10:29:14;;;;;;;19.23;9.48;;;;;;;3.64;50.30;100573.07;1770161;79;21215;-79
2020/12/12 10:31:42;;;;;;;16.65;7.80;;;;;;;3.31;50.94;100572.70;1784703;79;21186;-79
2020/12/12 10:34:11;;;;;;;14.05;7.78;;;;;;;3.33;50.96;100577.91;1791777;79;21648;-79
2020/12/12 10:36:39;;;;;;;14.98;8.30;;;;;;;3.62;50.36;100584.23;1795378;79;21200;-79
2020/12/12 10:39:09;;;;;;;17.62;9.55;;;;;;;3.63;50.19;100580.14;1748409;80;22333;-79
2020/12/12 10:41:37;;;;;;;15.68;8.75;;;;;;;3.64;50.15;100575.72;1799234;79;21169;-79
2020/12/12 10:44:07;;;;;;;16.25;8.35;;;;;;;3.64;50.17;100577.05;1793140;79;21202;-80
2020/12/12 10:46:36;;;;;;;17.70;9.05;;;;;;;3.66;50.20;100577.28;1781829;79;21649;-79
2020/12/12 10:49:04;;;;;;;26.62;9.00;;;;;;;3.69;50.15;100576.23;1800417;79;21201;-78
2020/12/12 10:51:32;;;;;;;19.30;9.00;;;;;;;3.69;50.07;100578.40;1779725;79;21566;-80
2020/12/12 10:54:00;;;;;;;21.07;7.00;;;;;;;3.70;50.18;100572.62;1784314;80;21173;-80
2020/12/12 10:56:28;;;;;;;19.23;7.80;;;;;;;3.72;50.15;100573.34;1770995;80;21196;-78
2020/12/12 10:58:56;;;;;;;18.37;8.43;;;;;;;3.73;50.11;100572.41;1757114;80;21807;-79
2020/12/12 11:01:24;;;;;;;17.10;9.78;;;;;;;3.80;50.00;100568.33;1766118;80;21201;-78
2020/12/12 11:03:52;;;;;;;14.47;8.15;;;;;;;3.80;49.96;100567.01;1765131;80;22086;-82
2020/12/12 11:06:19;;;;;;;21.77;9.68;;;;;;;3.81;50.02;100564.72;1765136;79;21186;-78
2020/12/12 11:08:47;;;;;;;18.77;9.30;;;;;;;3.83;49.97;100568.60;1795126;79;21463;-78
2020/12/12 11:11:15;;;;;;;17.60;8.90;;;;;;;3.85;49.98;100556.91;1784133;79;21363;-79
2020/12/12 11:13:45;;;;;;;19.50;10.43;;;;;;;3.87;49.89;100563.45;1757855;80;21194;-81
2020/12/12 11:16:22;;;;;;;19.95;9.58;;;;;;;3.81;49.91;100565.59;1753074;81;21209;-78
2020/12/12 11:18:52;;;;;;;17.75;8.58;;;;;;;3.81;50.07;100562.07;1753955;81;21679;-80
2020/12/12 11:21:22;;;;;;;21.80;10.80;;;;;;;3.84;50.08;100578.23;1753983;81;21121;-80
2020/12/12 11:23:50;;;;;;;19.25;8.48;;;;;;;3.87;50.12;100572.72;1766920;80;21207;-79
2020/12/12 11:26:19;;;;;;;19.60;9.13;;;;;;;3.88;50.17;100579.22;1782271;80;21190;-79
2020/12/12 11:28:47;;;;;;;24.30;9.28;;;;;;;3.91;50.09;100577.69;1776553;80;21181;-79
2020/12/12 11:31:18;;;;;;;20.32;9.43;;;;;;;3.91;50.11;100581.66;1785662;80;21208;-79
2020/12/12 11:33:49;;;;;;;20.77;8.33;;;;;;;3.85;50.25;100579.92;1759164;80;21193;-78
2020/12/12 11:36:36;;;;;;;18.67;9.80;;;;;;;3.84;50.33;100573.78;1753800;81;21235;-80
2020/12/12 11:41:55;;;;;;;20.45;10.13;;;;;;;3.81;50.40;100576.64;1772444;80;21197;-79